createdAt,value
2022-10-09T00:01:05.885Z,57.75
2022-10-09T00:11:12.806Z,57.63
2022-10-09T00:21:19.649Z,57.41
2022-10-09T00:31:25.955Z,57.78
2022-10-09T00:41:33.336Z,57.53
2022-10-09T00:51:40.507Z,57.83
2022-10-09T01:01:47.010Z,57.89
2022-10-09T01:11:54.135Z,57.65
2022-10-09T01:22:00.206Z,58.03
2022-10-09T01:32:06.277Z,58.02
2022-10-09T01:42:12.462Z,57.87
2022-10-09T01:52:19.448Z,57.92
2022-10-09T02:02:26.436Z,57.63
2022-10-09T02:12:33.124Z,57.72
2022-10-09T02:22:40.154Z,58.11
2022-10-09T02:32:47.434Z,57.89
2022-10-09T02:42:54.477Z,57.78
2022-10-09T02:53:01.029Z,58.14
2022-10-09T03:03:07.679Z,58.13
2022-10-09T03:13:13.910Z,57.77
2022-10-09T03:23:20.385Z,57.80
2022-10-09T03:33:26.476Z,57.86
2022-10-09T03:43:32.642Z,57.76
2022-10-09T03:53:39.810Z,57.98
2022-10-09T04:03:46.896Z,57.82
2022-10-09T04:13:53.765Z,57.58
2022-10-09T04:24:00.409Z,57.82
2022-10-09T04:34:07.351Z,57.83
2022-10-09T04:44:14.030Z,57.79
2022-10-09T04:54:20.272Z,57.96
2022-10-09T05:04:26.807Z,57.95
2022-10-09T05:14:34.087Z,57.79
2022-10-09T05:24:41.072Z,57.77
2022-10-09T05:34:48.130Z,57.78
2022-10-09T05:44:56.199Z,57.55
2022-10-09T05:55:03.295Z,57.69
2022-10-09T06:05:10.411Z,57.54
2022-10-09T06:15:16.722Z,57.65
2022-10-09T06:25:22.882Z,57.87
2022-10-09T06:35:29.163Z,57.71
2022-10-09T06:46:54.560Z,57.54
2022-10-09T06:57:00.597Z,57.68
2022-10-09T07:07:07.505Z,57.65
2022-10-09T07:17:13.622Z,57.57
2022-10-09T07:27:20.590Z,57.80
2022-10-09T07:37:27.656Z,57.66
2022-10-09T07:47:34.445Z,57.62
2022-10-09T07:57:41.478Z,57.53
2022-10-09T08:07:48.371Z,57.95
2022-10-09T08:17:55.095Z,57.81
2022-10-09T08:28:02.154Z,57.76
2022-10-09T08:38:17.726Z,57.99
2022-10-09T08:48:20.837Z,57.85
2022-10-09T08:58:27.448Z,57.82
2022-10-09T09:08:34.127Z,57.68
2022-10-09T09:18:42.943Z,57.98
2022-10-09T09:28:50.490Z,57.95
2022-10-09T09:40:07.803Z,58.06
2022-10-09T09:49:11.772Z,57.97
2022-10-09T09:59:18.803Z,58.87
2022-10-09T10:09:26.174Z,58.70
2022-10-09T10:19:32.831Z,58.67
2022-10-09T10:29:39.566Z,59.18
2022-10-09T10:39:45.885Z,58.35
2022-10-09T10:49:52.274Z,58.18
2022-10-09T10:59:59.143Z,58.27
2022-10-09T11:10:05.549Z,58.29
2022-10-09T11:20:11.775Z,58.10
2022-10-09T11:30:18.502Z,58.07
2022-10-09T11:40:24.903Z,57.79
2022-10-09T11:50:32.183Z,57.69
2022-10-09T12:00:38.634Z,57.79
2022-10-09T12:10:45.677Z,57.63
2022-10-09T12:20:52.373Z,57.51
2022-10-09T12:30:59.732Z,57.78
2022-10-09T12:41:06.553Z,57.53
2022-10-09T12:51:12.690Z,57.43
2022-10-09T13:01:19.276Z,57.78
2022-10-09T13:11:26.038Z,57.81
2022-10-09T13:21:35.055Z,57.87
2022-10-09T13:31:42.687Z,57.82
2022-10-09T13:41:49.291Z,57.44
2022-10-09T13:51:55.651Z,57.47
2022-10-09T14:02:02.713Z,57.44
2022-10-09T14:12:09.779Z,57.55
2022-10-09T14:22:16.888Z,57.61
2022-10-09T14:32:23.642Z,57.74
2022-10-09T14:42:30.750Z,57.60
2022-10-09T14:52:38.163Z,57.52
2022-10-09T15:02:45.309Z,57.61
2022-10-09T15:12:52.322Z,57.44
2022-10-09T15:22:59.625Z,57.36
2022-10-09T15:33:06.534Z,57.19
2022-10-09T15:43:13.140Z,57.40
2022-10-09T15:53:19.387Z,57.12
2022-10-09T16:03:25.890Z,57.17
2022-10-09T16:13:32.193Z,56.91
2022-10-09T16:23:38.555Z,56.76
2022-10-09T16:33:45.147Z,56.89
2022-10-09T16:43:51.564Z,57.08
2022-10-09T16:53:57.793Z,57.18
2022-10-09T17:04:04.659Z,56.88
2022-10-09T17:14:11.289Z,56.79
2022-10-09T17:24:18.391Z,56.79
2022-10-09T17:34:25.311Z,56.81
2022-10-09T17:44:31.531Z,58.03
2022-10-09T17:54:38.416Z,57.17
2022-10-09T18:04:45.095Z,56.35
2022-10-09T18:14:52.238Z,56.38
2022-10-09T18:24:59.275Z,56.24
2022-10-09T18:35:06.011Z,56.26
2022-10-09T18:45:13.339Z,56.43
2022-10-09T18:55:20.730Z,56.64
2022-10-09T19:05:28.028Z,57.39
2022-10-09T19:15:35.065Z,57.68
2022-10-09T19:25:42.151Z,57.18
2022-10-09T19:35:49.019Z,57.17
2022-10-09T19:45:55.910Z,58.02
2022-10-09T19:56:02.641Z,58.36
2022-10-09T20:06:09.296Z,58.41
2022-10-09T20:16:16.008Z,58.59
2022-10-09T20:26:22.785Z,59.16
2022-10-09T20:36:29.127Z,58.69
2022-10-09T20:46:36.010Z,58.35
2022-10-09T20:56:42.612Z,58.20
2022-10-09T21:06:49.677Z,58.93
2022-10-09T21:16:56.723Z,58.72
2022-10-09T21:27:03.866Z,58.70
2022-10-09T21:37:26.325Z,57.70
2022-10-09T21:47:22.608Z,57.97
2022-10-09T21:57:29.683Z,58.08
2022-10-09T22:07:36.852Z,58.23
2022-10-09T22:17:43.769Z,58.38
2022-10-09T22:27:50.381Z,58.09
2022-10-09T22:37:57.540Z,57.48
2022-10-09T22:48:03.620Z,57.28
2022-10-09T22:58:10.862Z,56.97
2022-10-09T23:08:17.894Z,57.05
2022-10-09T23:18:23.865Z,57.25
2022-10-09T23:28:30.299Z,57.34
2022-10-09T23:38:36.577Z,57.38
2022-10-09T23:48:42.724Z,57.32
2022-10-09T23:58:48.911Z,57.29
